Terminal Aerodrome Forecast
Issued by NWS

Home | Current Version | Previous Version | Text Only | Print | Product List | Glossary On
Versions: 1 2 3 4 5 6 7 8 9 10 11 12 13 14 15
154
FTUS46 KHNX 222325
TAFFAT
TAF
KFAT 222325Z 2300/2324 30003KT P6SM FEW060 SCT200
     FM230600 34003KT 4SM BR BKN040
     FM231200 33002KT 4SM BR OVC015
     FM231500 32002KT 2SM BR OVC004
     FM232000 21003KT 6SM HZ SCT060=

USA.gov is the U.S. government's official web portal to all federal, state and local government web resources and services.